Time;durP1;ratioP1;P1;durP2;ratioP2;P2;SDS_P1;SDS_P2;PMS_P1;PMS_P2;Temp;Humidity;BMP_temperature;BMP_pressure;BME280_temperature;BME280_humidity;BME280_pressure;Samples;Min_cycle;Max_cycle;Signal;HPM_P1;HPM_P2
2023/08/09 00:00:45;;;;;;;3.60;3.10;;;14.10;94.80;;;;;;4997403;28;20454;-90
2023/08/09 00:03:25;;;;;;;3.30;2.87;;;14.20;94.30;;;;;;5003686;28;20410;-85
2023/08/09 00:05:56;;;;;;;4.10;2.40;;;14.20;94.20;;;;;;4992569;28;20760;-83
2023/08/09 00:08:26;;;;;;;2.57;2.37;;;14.20;94.60;;;;;;4987727;28;20490;-83
2023/08/09 00:10:57;;;;;;;4.07;2.63;;;14.20;94.20;;;;;;4980290;28;20459;-85
2023/08/09 00:13:40;;;;;;;3.73;2.77;;;14.30;93.80;;;;;;4980490;28;20440;-85
2023/08/09 00:16:13;;;;;;;2.80;2.60;;;14.40;93.40;;;;;;4988213;28;20419;-85
2023/08/09 00:18:55;;;;;;;2.77;2.57;;;14.50;93.50;;;;;;4968985;28;20453;-86
2023/08/09 00:21:55;;;;;;;3.90;2.70;;;14.60;93.50;;;;;;4965702;28;20534;-85
2023/08/09 00:24:35;;;;;;;3.07;2.50;;;14.60;94.90;;;;;;4998842;28;20514;-86
2023/08/09 00:27:34;;;;;;;;;;;;;;;;;;;;;
2023/08/09 00:30:35;;;;;;;;;;;;;;;;;;;;;
2023/08/09 00:35:57;;;;;;;3.40;3.10;;;14.20;97.50;;;;;;5014082;23;20497;-89
2023/08/09 00:38:43;;;;;;;6.67;3.10;;;14.20;97.60;;;;;;5003859;28;20456;-88
2023/08/09 00:41:38;;;;;;;3.53;3.23;;;14.20;97.70;;;;;;5002279;28;20478;-88
2023/08/09 00:44:11;;;;;;;3.60;3.30;;;14.00;98.30;;;;;;4999935;28;20428;-89
2023/08/09 00:47:04;;;;;;;4.10;2.73;;;14.10;98.50;;;;;;4995249;28;20506;-89
2023/08/09 00:50:11;;;;;;;4.20;3.23;;;13.90;98.50;;;;;;5006276;28;20474;-89
2023/08/09 00:52:41;;;;;;;6.50;3.60;;;14.00;98.90;;;;;;4936154;29;20446;-87
2023/08/09 00:55:11;;;;;;;3.87;3.47;;;14.10;98.60;;;;;;4992771;28;20444;-88
2023/08/09 00:58:11;;;;;;;3.40;3.10;;;14.00;98.70;;;;;;4973447;28;20470;-85
2023/08/09 01:01:03;;;;;;;4.80;3.20;;;14.00;98.90;;;;;;5003318;28;20514;-88
2023/08/09 01:03:35;;;;;;;3.70;3.40;;;14.10;98.50;;;;;;5008178;28;20451;-85
2023/08/09 01:06:19;;;;;;;4.00;2.83;;;14.10;98.70;;;;;;4997332;28;20427;-85
2023/08/09 01:09:19;;;;;;;3.70;2.33;;;13.90;98.50;;;;;;5001180;28;20427;-86
2023/08/09 01:11:59;;;;;;;4.33;2.40;;;13.90;98.50;;;;;;4998639;28;20454;-86
2023/08/09 01:14:42;;;;;;;2.90;2.70;;;14.00;98.50;;;;;;4999695;28;20439;-87
2023/08/09 01:17:14;;;;;;;5.50;4.00;;;14.10;98.30;;;;;;5001286;28;20439;-86
2023/08/09 01:19:56;;;;;;;4.00;3.27;;;14.10;98.40;;;;;;4993862;28;20679;-86
2023/08/09 01:22:30;;;;;;;3.60;3.30;;;14.10;98.70;;;;;;4998546;28;20431;-86
2023/08/09 01:25:06;;;;;;;3.90;3.00;;;14.10;98.40;;;;;;5000953;28;20456;-83
2023/08/09 01:27:36;;;;;;;4.10;3.20;;;14.00;98.90;;;;;;4999506;28;20436;-81
2023/08/09 01:30:08;;;;;;;3.97;3.60;;;14.10;98.90;;;;;;4999562;28;20439;-83
2023/08/09 01:32:41;;;;;;;3.60;3.30;;;14.00;99.10;;;;;;5000786;28;20435;-86
2023/08/09 01:35:09;;;;;;;3.87;3.47;;;14.00;99.00;;;;;;5001244;28;20462;-82
2023/08/09 01:38:03;;;;;;;4.43;3.53;;;13.80;99.30;;;;;;4999976;28;20459;-82
2023/08/09 01:40:31;;;;;;;5.13;3.30;;;13.90;98.70;;;;;;4998547;28;20558;-84
2023/08/09 01:42:59;;;;;;;3.80;3.50;;;14.00;98.90;;;;;;4999610;28;20833;-84
2023/08/09 01:45:28;;;;;;;5.20;3.47;;;14.00;99.00;;;;;;4998879;28;20448;-83
2023/08/09 01:47:56;;;;;;;5.00;3.40;;;13.90;99.00;;;;;;4999929;28;20448;-83
2023/08/09 01:50:30;;;;;;;4.97;3.23;;;13.80;99.30;;;;;;4999710;28;20494;-84
2023/08/09 01:53:00;;;;;;;3.33;3.07;;;13.70;99.30;;;;;;5001625;28;20439;-86
2023/08/09 01:55:27;;;;;;;6.80;3.50;;;13.80;99.40;;;;;;4998571;28;21027;-83
2023/08/09 01:57:55;;;;;;;4.20;2.93;;;13.80;99.50;;;;;;5001672;28;20469;-83
2023/08/09 02:00:22;;;;;;;4.43;3.97;;;13.60;99.30;;;;;;5001772;28;20487;-82
2023/08/09 02:02:55;;;;;;;4.70;4.07;;;13.60;99.50;;;;;;5004107;28;20474;-84
2023/08/09 02:05:22;;;;;;;8.93;4.70;;;13.50;99.90;;;;;;5003550;28;20439;-82
2023/08/09 02:07:50;;;;;;;4.10;3.80;;;13.50;99.90;;;;;;5003086;28;20436;-81
2023/08/09 02:10:18;;;;;;;4.70;4.30;;;13.30;99.90;;;;;;5004755;28;20522;-83
2023/08/09 02:12:50;;;;;;;5.23;3.83;;;13.50;99.90;;;;;;4980807;28;20440;-86
2023/08/09 02:15:20;;;;;;;5.30;3.70;;;13.50;99.90;;;;;;4999282;28;20456;-84
2023/08/09 02:17:49;;;;;;;7.90;4.35;;;13.10;99.90;;;;;;4999503;28;20217;-83
2023/08/09 02:20:19;;;;;;;5.10;4.60;;;13.20;99.90;;;;;;4998344;28;20212;-83
2023/08/09 02:22:48;;;;;;;5.07;4.57;;;13.10;99.90;;;;;;4999905;28;20420;-83
2023/08/09 02:25:16;;;;;;;5.55;4.35;;;12.90;99.90;;;;;;4998786;28;20213;-84
2023/08/09 02:27:46;;;;;;;7.10;3.88;;;13.00;99.90;;;;;;4998804;28;20202;-82
2023/08/09 02:30:15;;;;;;;5.40;3.78;;;12.90;99.90;;;;;;4982822;28;20490;-82
2023/08/09 02:32:43;;;;;;;4.28;3.90;;;13.10;99.90;;;;;;5008611;28;20205;-83
2023/08/09 02:35:12;;;;;;;5.55;4.10;;;13.00;99.90;;;;;;4999790;28;20256;-83
2023/08/09 02:37:39;;;;;;;6.45;3.90;;;13.20;99.90;;;;;;4998794;28;20245;-84
2023/08/09 02:40:08;;;;;;;4.68;4.00;;;13.30;99.90;;;;;;4998938;28;20218;-85
2023/08/09 02:42:35;;;;;;;4.57;4.18;;;13.40;99.90;;;;;;4999002;28;20449;-84
2023/08/09 02:45:03;;;;;;;4.50;3.63;;;13.40;99.90;;;;;;5003011;28;20272;-83
2023/08/09 02:47:30;;;;;;;4.18;3.88;;;13.30;99.90;;;;;;5012875;28;20232;-81
2023/08/09 02:50:00;;;;;;;5.70;4.13;;;13.20;99.90;;;;;;5004822;28;20209;-83
2023/08/09 02:52:27;;;;;;;4.95;3.83;;;13.10;99.90;;;;;;5002710;28;20198;-80
2023/08/09 02:54:54;;;;;;;5.30;4.80;;;13.00;99.90;;;;;;5014419;28;20190;-83
2023/08/09 02:57:26;;;;;;;4.70;4.30;;;13.00;99.90;;;;;;5015673;28;20200;-83
2023/08/09 02:59:53;;;;;;;5.50;4.25;;;12.80;99.90;;;;;;5008070;28;20268;-82
2023/08/09 03:02:25;;;;;;;5.72;4.88;;;12.70;99.90;;;;;;4998630;28;20422;-81
2023/08/09 03:04:53;;;;;;;7.20;4.25;;;12.70;99.90;;;;;;4998879;28;20233;-82
2023/08/09 03:07:19;;;;;;;9.70;4.38;;;12.70;99.90;;;;;;4998242;28;20264;-81
2023/08/09 03:09:47;;;;;;;4.78;4.32;;;12.60;99.90;;;;;;4993566;28;20205;-80
2023/08/09 03:12:13;;;;;;;4.75;3.60;;;12.50;99.90;;;;;;4997935;28;20281;-84
2023/08/09 03:14:41;;;;;;;8.07;4.30;;;12.50;99.90;;;;;;4997912;28;20228;-83
2023/08/09 03:17:08;;;;;;;4.38;3.80;;;12.40;99.90;;;;;;4992978;28;20232;-82
2023/08/09 03:19:38;;;;;;;6.28;4.53;;;12.40;99.90;;;;;;4996767;28;20288;-82
2023/08/09 03:22:07;;;;;;;5.32;3.95;;;12.30;99.90;;;;;;4987527;28;20285;-80
2023/08/09 03:24:36;;;;;;;5.45;4.95;;;12.30;99.90;;;;;;5011443;28;20233;-83
2023/08/09 03:27:03;;;;;;;7.45;4.88;;;12.20;99.90;;;;;;4997586;28;20241;-83
2023/08/09 03:29:32;;;;;;;5.90;4.60;;;12.20;99.90;;;;;;5004086;28;20253;-83
2023/08/09 03:32:03;;;;;;;5.50;4.35;;;12.20;99.90;;;;;;5012524;28;20248;-84
2023/08/09 03:34:31;;;;;;;5.70;4.47;;;12.10;99.90;;;;;;4998130;28;20214;-83
2023/08/09 03:36:59;;;;;;;6.18;4.80;;;11.90;99.90;;;;;;4997212;28;20222;-81
2023/08/09 03:39:26;;;;;;;6.75;4.75;;;12.10;99.90;;;;;;4997393;28;20210;-83
2023/08/09 03:41:58;;;;;;;9.27;5.82;;;12.00;99.90;;;;;;4998691;28;20486;-86
2023/08/09 03:44:25;;;;;;;4.40;4.00;;;12.10;99.90;;;;;;4998960;28;20225;-85
2023/08/09 03:46:56;;;;;;;9.55;5.88;;;12.00;99.90;;;;;;4993982;28;20202;-86
2023/08/09 03:49:35;;;;;;;6.03;5.03;;;12.30;99.90;;;;;;4996077;28;20194;-84
2023/08/09 03:52:23;;;;;;;6.22;5.57;;;12.30;99.90;;;;;;4990556;28;20526;-84
2023/08/09 03:54:52;;;;;;;8.02;4.57;;;12.50;99.90;;;;;;4992480;28;20213;-84
2023/08/09 03:57:20;;;;;;;4.72;4.32;;;12.50;99.90;;;;;;5000214;28;20224;-86
2023/08/09 03:59:53;;;;;;;5.50;4.22;;;12.70;99.90;;;;;;5000642;28;20240;-84
2023/08/09 04:02:21;;;;;;;5.43;4.20;;;12.40;99.90;;;;;;4999491;28;20248;-89
2023/08/09 04:04:49;;;;;;;6.47;5.55;;;12.60;99.90;;;;;;5018859;28;20221;-83
2023/08/09 04:07:20;;;;;;;5.85;5.10;;;12.70;99.90;;;;;;4998633;28;20551;-84
2023/08/09 04:09:48;;;;;;;5.15;4.28;;;12.70;99.90;;;;;;4998380;28;20245;-82
2023/08/09 04:12:18;;;;;;;6.05;4.82;;;12.80;99.90;;;;;;4996389;28;20696;-82
2023/08/09 04:14:45;;;;;;;4.72;4.00;;;12.90;99.90;;;;;;4996666;28;20325;-82
2023/08/09 04:17:13;;;;;;;4.45;4.05;;;13.00;99.90;;;;;;4992075;28;20209;-82
2023/08/09 04:19:46;;;;;;;10.23;6.50;;;13.20;99.90;;;;;;4996774;28;20209;-84
2023/08/09 04:22:18;;;;;;;7.55;5.75;;;13.40;99.90;;;;;;5000927;28;20552;-85
2023/08/09 04:24:48;;;;;;;5.05;3.65;;;13.60;99.90;;;;;;5003044;28;20217;-84
2023/08/09 04:27:27;;;;;;;4.15;3.85;;;13.70;99.90;;;;;;5005679;28;20228;-87
2023/08/09 04:29:56;;;;;;;5.35;3.75;;;13.80;99.90;;;;;;5002496;28;20205;-86
2023/08/09 04:32:44;;;;;;;5.83;4.43;;;14.00;98.50;;;;;;5000557;28;20229;-88
2023/08/09 04:35:11;;;;;;;5.60;3.83;;;14.20;97.80;;;;;;4999989;28;20530;-87
2023/08/09 04:37:47;;;;;;;5.93;4.00;;;14.30;99.00;;;;;;5003591;28;20524;-89
2023/08/09 04:40:18;;;;;;;5.47;3.83;;;14.30;97.20;;;;;;5003032;28;20632;-88
2023/08/09 04:42:52;;;;;;;5.13;4.30;;;14.60;96.30;;;;;;5024083;28;20673;-88
2023/08/09 04:45:24;;;;;;;4.83;3.80;;;14.50;96.30;;;;;;5001717;28;20759;-86
2023/08/09 04:47:53;;;;;;;4.60;3.80;;;14.60;97.10;;;;;;5001974;28;20425;-86
2023/08/09 04:50:21;;;;;;;11.50;7.13;;;14.70;96.30;;;;;;5002483;28;20423;-85
2023/08/09 04:52:57;;;;;;;8.73;4.20;;;14.70;96.30;;;;;;5001154;28;20505;-86
2023/08/09 04:55:26;;;;;;;7.33;4.67;;;14.90;96.20;;;;;;5034150;28;20430;-86
2023/08/09 04:57:58;;;;;;;3.67;3.37;;;15.20;95.40;;;;;;5001497;28;20640;-84
2023/08/09 05:00:28;;;;;;;4.37;3.07;;;15.50;95.50;;;;;;5015180;28;20650;-83
2023/08/09 05:02:56;;;;;;;7.53;4.03;;;15.30;95.30;;;;;;5013229;28;20501;-88
2023/08/09 05:05:29;;;;;;;4.87;3.70;;;15.30;94.20;;;;;;4987931;28;20447;-88
2023/08/09 05:08:20;;;;;;;5.23;3.40;;;15.30;93.70;;;;;;4999400;28;20523;-91
2023/08/09 05:10:48;;;;;;;6.07;3.80;;;15.20;94.30;;;;;;5005135;28;20466;-87
2023/08/09 05:13:19;;;;;;;4.67;3.63;;;15.20;94.50;;;;;;5002524;28;20447;-85
2023/08/09 05:15:51;;;;;;;5.20;3.97;;;15.40;94.10;;;;;;5003150;28;20865;-88
2023/08/09 05:18:38;;;;;;;6.70;3.03;;;15.40;93.50;;;;;;5001885;28;20521;-90
2023/08/09 05:21:14;;;;;;;3.87;3.40;;;15.40;93.90;;;;;;4998633;28;20450;-87
2023/08/09 05:23:53;;;;;;;4.40;3.70;;;15.50;94.40;;;;;;4972735;28;20442;-88
2023/08/09 05:26:27;;;;;;;7.93;3.07;;;15.60;94.20;;;;;;4993426;28;20431;-88
2023/08/09 05:28:54;;;;;;;3.60;3.30;;;15.60;93.50;;;;;;5004053;28;20418;-84
2023/08/09 05:31:47;;;;;;;3.97;3.10;;;15.60;93.40;;;;;;5005686;28;20499;-88
2023/08/09 05:34:14;;;;;;;5.70;3.37;;;15.70;94.20;;;;;;4998698;28;20447;-82
2023/08/09 05:36:56;;;;;;;;;;;;;;;;;;;;;
2023/08/09 05:39:36;;;;;;;7.80;3.47;;;15.90;93.30;;;;;;4998029;28;20436;-88
2023/08/09 05:42:08;;;;;;;6.87;3.90;;;15.90;93.30;;;;;;4997113;28;20487;-84
2023/08/09 05:44:35;;;;;;;8.57;3.80;;;16.20;92.30;;;;;;5005725;28;20534;-88
2023/08/09 05:47:03;;;;;;;7.37;3.50;;;16.50;92.40;;;;;;5040400;28;20447;-92
2023/08/09 05:49:30;;;;;;;8.13;5.27;;;16.90;92.30;;;;;;5005560;28;20489;-90
2023/08/09 05:52:07;;;;;;;;;;;;;;;;;;;;;
2023/08/09 05:54:35;;;;;;;6.03;3.57;;;17.40;91.40;;;;;;5006706;28;20473;-88
2023/08/09 05:57:04;;;;;;;4.63;3.60;;;17.80;90.90;;;;;;5011533;28;20467;-89
2023/08/09 05:59:37;;;;;;;3.73;2.93;;;17.80;89.70;;;;;;5019402;28;20538;-89
2023/08/09 06:02:12;;;;;;;5.10;3.33;;;17.90;89.50;;;;;;5001937;28;20506;-84
2023/08/09 06:04:43;;;;;;;4.30;3.30;;;18.20;90.00;;;;;;5002615;28;20447;-86
2023/08/09 06:07:11;;;;;;;3.70;3.03;;;18.30;89.30;;;;;;4996436;28;20824;-86
2023/08/09 06:10:07;;;;;;;6.20;3.90;;;18.30;86.40;;;;;;5002609;28;20489;-85
2023/08/09 06:13:16;;;;;;;4.13;3.73;;;18.60;86.70;;;;;;5001624;28;20409;-86
2023/08/09 06:19:25;;;;;;;4.67;2.83;;;19.00;83.20;;;;;;5000297;28;20448;-87
2023/08/09 06:22:08;;;;;;;6.70;3.67;;;19.00;84.40;;;;;;4993221;28;20642;-87
2023/08/09 06:24:46;;;;;;;4.17;3.33;;;18.70;83.00;;;;;;4999340;28;20446;-86
2023/08/09 06:27:20;;;;;;;6.83;4.40;;;18.70;84.50;;;;;;4993059;28;20705;-86
2023/08/09 06:30:00;;;;;;;5.37;3.43;;;18.40;84.00;;;;;;4996772;28;20482;-86
2023/08/09 06:32:30;;;;;;;8.70;3.43;;;18.20;87.40;;;;;;5012208;28;20486;-87
2023/08/09 06:34:58;;;;;;;4.87;3.10;;;18.30;87.40;;;;;;4995660;28;20433;-83
2023/08/09 06:37:25;;;;;;;7.33;3.30;;;18.00;87.30;;;;;;4992102;28;20420;-85
2023/08/09 06:39:54;;;;;;;6.37;3.33;;;18.20;88.10;;;;;;4997455;28;20423;-85
2023/08/09 06:42:28;;;;;;;5.20;3.70;;;18.00;88.30;;;;;;4998004;28;20445;-84
2023/08/09 06:45:07;;;;;;;11.20;4.60;;;17.80;90.10;;;;;;4998239;28;20461;-84
2023/08/09 06:47:47;;;;;;;6.10;3.00;;;17.80;88.50;;;;;;4996701;28;20440;-85
2023/08/09 06:50:24;;;;;;;7.73;5.80;;;17.80;89.40;;;;;;5000067;28;20462;-86
2023/08/09 06:53:30;;;;;;;9.83;4.27;;;17.70;90.10;;;;;;4999878;28;20425;-85
2023/08/09 06:56:08;;;;;;;5.03;3.40;;;17.50;90.60;;;;;;4999747;28;20407;-85
2023/08/09 06:59:03;;;;;;;4.57;3.30;;;17.50;91.80;;;;;;4994497;28;20447;-86
2023/08/09 07:01:38;;;;;;;5.40;3.77;;;17.20;92.70;;;;;;4995768;28;20494;-87
2023/08/09 07:04:09;;;;;;;3.60;3.13;;;17.00;93.40;;;;;;5000566;28;20485;-87
2023/08/09 07:06:41;;;;;;;3.83;3.40;;;16.90;94.50;;;;;;4995217;28;20523;-86
2023/08/09 07:09:11;;;;;;;5.90;3.60;;;16.70;96.40;;;;;;5015434;28;20451;-85
2023/08/09 07:11:38;;;;;;;7.00;4.33;;;16.50;97.50;;;;;;5009954;28;20467;-81
2023/08/09 07:14:05;;;;;;;5.03;4.10;;;16.30;98.10;;;;;;5015853;28;20426;-82
2023/08/09 07:16:32;;;;;;;4.40;4.00;;;16.20;99.20;;;;;;5008464;28;20435;-81
2023/08/09 07:18:59;;;;;;;4.37;3.97;;;16.10;99.50;;;;;;5014306;28;20421;-81
2023/08/09 07:21:27;;;;;;;6.33;4.00;;;15.90;99.90;;;;;;5016996;28;20451;-82
2023/08/09 07:23:55;;;;;;;4.03;3.30;;;15.90;99.90;;;;;;5014499;28;20522;-80
2023/08/09 07:26:25;;;;;;;11.50;4.60;;;15.80;99.90;;;;;;5008787;28;20470;-79
2023/08/09 07:28:52;;;;;;;5.37;4.00;;;15.80;99.90;;;;;;4993780;28;20429;-80
2023/08/09 07:31:21;;;;;;;7.40;4.20;;;15.70;99.90;;;;;;4991239;28;20411;-79
2023/08/09 07:33:49;;;;;;;6.30;5.53;;;15.80;99.90;;;;;;4989592;28;20414;-80
2023/08/09 07:36:15;;;;;;;6.57;4.43;;;15.60;99.90;;;;;;4993969;28;20490;-80
2023/08/09 07:38:43;;;;;;;8.63;4.53;;;15.70;99.90;;;;;;4995418;28;21050;-80
2023/08/09 07:41:10;;;;;;;9.57;7.80;;;15.60;99.90;;;;;;4993477;28;20482;-79
2023/08/09 07:43:37;;;;;;;5.83;5.00;;;15.80;99.90;;;;;;4991094;28;20537;-78
2023/08/09 07:46:06;;;;;;;6.70;5.10;;;15.70;99.90;;;;;;4994392;28;20418;-78
2023/08/09 07:48:33;;;;;;;7.03;5.63;;;15.80;99.90;;;;;;4996617;28;20447;-78
2023/08/09 07:51:01;;;;;;;4.90;4.40;;;15.70;99.90;;;;;;4993387;28;20446;-78
2023/08/09 07:53:31;;;;;;;4.60;4.20;;;15.70;99.90;;;;;;4995613;28;20448;-79
2023/08/09 07:55:57;;;;;;;7.57;4.83;;;15.60;99.90;;;;;;4996042;28;20459;-80
2023/08/09 07:58:24;;;;;;;5.77;5.27;;;15.60;99.90;;;;;;4994970;28;20475;-80
2023/08/09 08:00:52;;;;;;;6.70;6.10;;;15.60;99.90;;;;;;4995000;28;20417;-80
2023/08/09 08:03:19;;;;;;;6.57;5.10;;;15.60;99.90;;;;;;4994117;28;20486;-79
2023/08/09 08:05:45;;;;;;;5.27;4.77;;;15.60;99.90;;;;;;4993143;28;20457;-79
2023/08/09 08:08:15;;;;;;;6.00;5.07;;;15.50;99.90;;;;;;4994973;28;20418;-79
2023/08/09 08:10:43;;;;;;;4.20;3.90;;;15.90;99.90;;;;;;4994937;28;21000;-79
2023/08/09 08:13:11;;;;;;;8.27;7.47;;;15.80;99.90;;;;;;4994321;28;20584;-80
2023/08/09 08:15:38;;;;;;;6.90;5.03;;;15.80;99.90;;;;;;4994674;28;20443;-80
2023/08/09 08:18:05;;;;;;;7.47;5.43;;;15.70;99.90;;;;;;4994857;28;20447;-80
2023/08/09 08:20:34;;;;;;;5.90;3.63;;;15.90;99.90;;;;;;4992408;28;20418;-79
2023/08/09 08:23:01;;;;;;;4.97;4.57;;;16.00;99.90;;;;;;4992926;28;20499;-79
2023/08/09 08:25:31;;;;;;;5.40;4.90;;;15.90;99.90;;;;;;4990133;28;20430;-81
2023/08/09 08:27:59;;;;;;;8.00;5.77;;;16.00;99.90;;;;;;4997221;28;20480;-81
2023/08/09 08:30:28;;;;;;;5.00;4.57;;;15.80;99.90;;;;;;4997317;28;20414;-81
2023/08/09 08:33:10;;;;;;;5.97;4.40;;;15.70;99.90;;;;;;4997325;28;20451;-83
2023/08/09 08:35:44;;;;;;;5.93;5.10;;;15.80;99.90;;;;;;4998279;28;20434;-85
2023/08/09 08:38:34;;;;;;;4.67;4.27;;;15.40;99.90;;;;;;4997920;28;20508;-83
2023/08/09 08:41:23;;;;;;;7.00;5.00;;;15.50;99.90;;;;;;4918951;29;20770;-86
2023/08/09 08:44:07;;;;;;;7.07;4.63;;;15.50;99.90;;;;;;4916321;29;20498;-85
2023/08/09 08:47:12;;;;;;;5.43;4.93;;;15.50;99.90;;;;;;4983949;28;20429;-84
2023/08/09 08:49:51;;;;;;;6.53;5.93;;;15.40;99.90;;;;;;4993491;28;20437;-85
2023/08/09 08:52:27;;;;;;;6.00;4.97;;;15.30;99.90;;;;;;4998782;28;20773;-86
2023/08/09 08:55:05;;;;;;;5.00;4.50;;;15.50;99.90;;;;;;5000483;28;20443;-86
2023/08/09 08:57:41;;;;;;;4.47;3.70;;;15.60;99.90;;;;;;5000052;28;20495;-86
2023/08/09 09:00:15;;;;;;;5.80;4.00;;;15.50;99.90;;;;;;4998239;28;20443;-85
2023/08/09 09:02:52;;;;;;;4.90;4.40;;;15.50;99.90;;;;;;4999895;28;20445;-87
2023/08/09 09:05:47;;;;;;;3.60;3.20;;;15.70;99.90;;;;;;5029239;28;20428;-87
2023/08/09 09:08:20;;;;;;;4.00;3.60;;;16.00;99.90;;;;;;5012437;28;20421;-84
2023/08/09 09:11:03;;;;;;;4.60;4.23;;;15.90;99.90;;;;;;5006018;28;20718;-86
2023/08/09 09:14:03;;;;;;;6.00;4.53;;;16.20;99.90;;;;;;5001951;28;20481;-88
2023/08/09 09:19:19;;;;;;;;;;;;;;;;;;;;;
2023/08/09 09:22:05;;;;;;;;;;;;;;;;;;;;;
2023/08/09 09:24:36;;;;;;;3.60;3.37;;;16.80;98.50;;;;;;4994786;28;20418;-86
2023/08/09 09:27:04;;;;;;;4.53;2.60;;;16.50;97.50;;;;;;4999263;28;21098;-82
2023/08/09 09:29:44;;;;;;;4.20;3.60;;;16.30;98.80;;;;;;5003158;28;20447;-83
2023/08/09 09:32:16;;;;;;;3.60;3.30;;;16.50;98.50;;;;;;5002301;28;20438;-86
2023/08/09 09:35:15;;;;;;;5.77;3.83;;;16.70;99.60;;;;;;5000129;28;20425;-84
2023/08/09 09:37:50;;;;;;;6.03;3.60;;;16.90;98.90;;;;;;5002877;28;20473;-81
2023/08/09 09:40:34;;;;;;;2.80;2.60;;;17.00;99.10;;;;;;5000799;28;20477;-87
2023/08/09 09:43:14;;;;;;;3.33;3.00;;;16.80;96.90;;;;;;5005082;28;20468;-83
2023/08/09 09:46:02;;;;;;;4.63;4.27;;;16.70;97.50;;;;;;5005106;28;20696;-80
2023/08/09 09:48:29;;;;;;;4.10;3.70;;;17.00;99.90;;;;;;4999992;28;20469;-81
2023/08/09 09:51:02;;;;;;;6.67;3.10;;;17.00;97.20;;;;;;5006580;28;20429;-81
2023/08/09 09:53:32;;;;;;;3.80;3.57;;;17.10;96.70;;;;;;4996876;28;20414;-81
2023/08/09 09:55:59;;;;;;;4.57;4.13;;;17.20;98.40;;;;;;4998685;28;20489;-79
2023/08/09 09:58:26;;;;;;;3.50;3.20;;;17.10;96.60;;;;;;4990437;28;20484;-79
2023/08/09 10:00:55;;;;;;;3.73;3.43;;;17.00;97.60;;;;;;4999926;28;20482;-80
2023/08/09 10:03:23;;;;;;;4.70;4.20;;;16.60;95.70;;;;;;4998565;28;20480;-78
2023/08/09 10:05:55;;;;;;;4.00;3.60;;;16.40;97.90;;;;;;4997614;28;20418;-79
2023/08/09 10:08:25;;;;;;;5.67;3.93;;;16.30;98.90;;;;;;4999961;28;20436;-79
2023/08/09 10:10:54;;;;;;;4.93;4.47;;;16.10;98.90;;;;;;4999201;28;20637;-77
2023/08/09 10:13:24;;;;;;;6.93;5.17;;;16.00;99.90;;;;;;5000257;28;20514;-78
2023/08/09 10:16:02;;;;;;;5.23;4.13;;;15.80;99.70;;;;;;4999251;28;20435;-79
2023/08/09 10:18:42;;;;;;;5.03;4.00;;;15.90;99.90;;;;;;5000042;28;20434;-79
2023/08/09 10:21:13;;;;;;;4.80;4.40;;;16.00;99.90;;;;;;5009007;28;20436;-79
2023/08/09 10:23:57;;;;;;;13.73;5.70;;;15.90;99.90;;;;;;4999387;28;20534;-81
2023/08/09 10:26:29;;;;;;;5.90;5.30;;;15.80;99.90;;;;;;5000206;28;20844;-84
2023/08/09 10:29:06;;;;;;;9.47;5.57;;;15.80;99.90;;;;;;4998920;28;20453;-79
2023/08/09 10:31:54;;;;;;;5.70;4.40;;;15.80;99.90;;;;;;4995033;28;20451;-78
2023/08/09 10:34:33;;;;;;;6.90;4.87;;;15.80;99.90;;;;;;4997486;28;20439;-80
2023/08/09 10:37:01;;;;;;;5.53;5.10;;;16.00;99.90;;;;;;5007693;28;20536;-82
2023/08/09 10:39:30;;;;;;;8.53;5.57;;;16.00;99.70;;;;;;5001808;28;20730;-83
2023/08/09 10:42:00;;;;;;;8.40;4.40;;;16.10;99.90;;;;;;5008549;28;20500;-82
2023/08/09 10:44:40;;;;;;;6.43;5.83;;;16.20;99.90;;;;;;5015059;28;20462;-79
2023/08/09 10:47:18;;;;;;;5.80;5.20;;;16.30;99.90;;;;;;5009614;28;20755;-78
2023/08/09 10:49:48;;;;;;;5.07;4.13;;;16.10;99.50;;;;;;4998800;28;20507;-80
2023/08/09 10:52:15;;;;;;;7.73;4.13;;;15.90;99.90;;;;;;4997227;28;20453;-79
2023/08/09 10:54:49;;;;;;;4.57;4.17;;;16.00;99.90;;;;;;4997676;28;20631;-80
2023/08/09 10:57:16;;;;;;;6.37;5.77;;;16.00;99.90;;;;;;4995750;28;20444;-82
2023/08/09 10:59:43;;;;;;;5.20;4.80;;;16.40;99.90;;;;;;4998038;28;20477;-81
2023/08/09 11:02:10;;;;;;;6.47;5.80;;;16.20;99.90;;;;;;4998192;28;20451;-80
2023/08/09 11:04:38;;;;;;;5.83;5.43;;;16.00;99.90;;;;;;5000126;28;20499;-79
2023/08/09 11:07:06;;;;;;;5.97;5.13;;;15.90;99.90;;;;;;5003497;28;20464;-80
2023/08/09 11:09:33;;;;;;;6.30;5.70;;;15.90;99.90;;;;;;5006946;28;20651;-81
2023/08/09 11:12:01;;;;;;;5.87;5.23;;;15.70;99.90;;;;;;5016589;28;20427;-84
2023/08/09 11:14:32;;;;;;;7.80;7.10;;;15.70;99.90;;;;;;5011843;28;20470;-83
2023/08/09 11:17:00;;;;;;;9.23;8.37;;;15.60;99.90;;;;;;4999126;28;20474;-79
2023/08/09 11:19:28;;;;;;;7.87;7.00;;;15.50;99.90;;;;;;4998785;28;21048;-83
2023/08/09 11:22:02;;;;;;;7.83;7.13;;;15.20;99.90;;;;;;5001018;28;20852;-83
2023/08/09 11:24:30;;;;;;;7.40;6.70;;;15.20;99.90;;;;;;5001990;28;20483;-85
2023/08/09 11:26:58;;;;;;;9.33;8.00;;;15.10;99.90;;;;;;4998661;28;20447;-87
2023/08/09 11:29:27;;;;;;;9.97;9.17;;;15.10;99.90;;;;;;5004454;28;20510;-86
2023/08/09 11:31:58;;;;;;;12.20;11.20;;;14.90;99.90;;;;;;5002364;28;20510;-85
2023/08/09 11:34:26;;;;;;;14.30;11.83;;;15.00;99.90;;;;;;5000213;28;20453;-86
2023/08/09 11:36:55;;;;;;;13.00;11.70;;;15.00;99.90;;;;;;4998162;28;20453;-85
2023/08/09 11:39:26;;;;;;;17.83;16.03;;;15.00;99.90;;;;;;4999300;28;20515;-81
2023/08/09 11:41:56;;;;;;;20.23;18.10;;;15.20;99.90;;;;;;5001709;28;20447;-81
2023/08/09 11:44:30;;;;;;;16.93;15.53;;;15.10;99.90;;;;;;5001790;28;20534;-82
2023/08/09 11:47:01;;;;;;;19.60;17.90;;;15.10;99.90;;;;;;5000659;28;20451;-84
2023/08/09 11:49:32;;;;;;;17.50;15.90;;;15.10;99.90;;;;;;5000604;28;20660;-84
2023/08/09 11:52:00;;;;;;;18.80;17.13;;;15.10;99.90;;;;;;5001598;28;20451;-81
2023/08/09 11:54:29;;;;;;;17.87;16.20;;;15.40;99.90;;;;;;4998822;28;20447;-86
2023/08/09 11:56:56;;;;;;;20.93;19.03;;;15.50;99.90;;;;;;5001221;28;20592;-83
2023/08/09 11:59:24;;;;;;;17.67;16.20;;;15.40;99.90;;;;;;4999866;28;20516;-83
2023/08/09 12:01:57;;;;;;;20.43;18.83;;;15.60;99.90;;;;;;5000422;28;20475;-82
2023/08/09 12:04:26;;;;;;;19.00;17.50;;;15.50;99.90;;;;;;5002450;28;20475;-85
2023/08/09 12:06:56;;;;;;;18.60;16.60;;;15.30;99.90;;;;;;5002012;28;20455;-80
2023/08/09 12:09:34;;;;;;;15.27;14.10;;;15.20;99.90;;;;;;5002724;28;20444;-84
2023/08/09 12:12:09;;;;;;;15.07;13.80;;;15.30;99.90;;;;;;5008748;28;20728;-80
2023/08/09 12:14:48;;;;;;;14.43;12.40;;;15.30;99.90;;;;;;5002593;28;20445;-80
2023/08/09 12:17:21;;;;;;;11.60;10.40;;;15.30;99.90;;;;;;5000788;28;20439;-83
2023/08/09 12:20:04;;;;;;;12.43;11.27;;;15.20;99.90;;;;;;4998994;28;20435;-80
2023/08/09 12:22:32;;;;;;;12.60;11.40;;;15.30;99.90;;;;;;4998596;28;20679;-79
2023/08/09 12:25:00;;;;;;;9.30;8.40;;;15.60;99.90;;;;;;4998655;28;20471;-82
2023/08/09 12:27:27;;;;;;;11.17;9.97;;;15.70;99.90;;;;;;4998005;28;20435;-81
2023/08/09 12:29:54;;;;;;;12.70;11.30;;;16.20;99.90;;;;;;4997948;28;20636;-86
2023/08/09 12:32:29;;;;;;;8.10;7.40;;;16.50;99.90;;;;;;4997457;28;20452;-82
2023/08/09 12:35:05;;;;;;;7.57;6.90;;;16.80;99.90;;;;;;4999920;28;20442;-83
2023/08/09 12:37:32;;;;;;;6.90;6.30;;;16.70;99.90;;;;;;4998961;28;20511;-82
2023/08/09 12:39:59;;;;;;;6.60;6.10;;;16.70;99.90;;;;;;4999449;28;20448;-83
2023/08/09 12:42:26;;;;;;;7.33;6.73;;;16.60;99.90;;;;;;4996893;28;20452;-81
2023/08/09 12:44:53;;;;;;;5.83;5.30;;;16.70;99.90;;;;;;4998025;28;20498;-83
2023/08/09 12:47:20;;;;;;;5.27;4.87;;;16.90;99.90;;;;;;5017216;28;20419;-82
2023/08/09 12:49:49;;;;;;;6.13;5.53;;;17.20;99.90;;;;;;5006165;28;20445;-81
2023/08/09 12:52:17;;;;;;;5.40;5.00;;;17.40;99.90;;;;;;5001679;28;20518;-82
2023/08/09 12:54:44;;;;;;;9.97;5.40;;;17.50;99.90;;;;;;5002520;28;20475;-81
2023/08/09 12:57:10;;;;;;;6.20;5.70;;;17.50;99.90;;;;;;5002949;28;20489;-81
2023/08/09 12:59:37;;;;;;;6.33;5.73;;;17.50;99.90;;;;;;5000458;28;20478;-80
2023/08/09 13:02:04;;;;;;;7.20;4.97;;;17.60;99.50;;;;;;5001799;28;20519;-81
2023/08/09 13:04:34;;;;;;;4.37;4.07;;;17.80;98.90;;;;;;5004605;28;20745;-87
2023/08/09 13:07:01;;;;;;;4.97;4.47;;;17.50;98.30;;;;;;4997455;28;20817;-81
2023/08/09 13:09:28;;;;;;;4.23;3.83;;;17.80;99.80;;;;;;4998454;28;20456;-81
2023/08/09 13:12:07;;;;;;;4.10;3.80;;;17.90;98.70;;;;;;5003443;28;20447;-84
2023/08/09 13:14:34;;;;;;;4.17;3.60;;;17.80;98.10;;;;;;5003878;28;20443;-85
2023/08/09 13:17:08;;;;;;;4.73;3.60;;;17.60;95.70;;;;;;5008786;28;20464;-82
2023/08/09 13:19:36;;;;;;;3.30;3.00;;;17.70;97.40;;;;;;5005117;28;20495;-82
2023/08/09 13:22:04;;;;;;;3.50;2.70;;;17.70;96.70;;;;;;5012842;28;20436;-84
2023/08/09 13:24:31;;;;;;;2.63;2.43;;;17.90;94.70;;;;;;5013074;28;20500;-80
2023/08/09 13:26:59;;;;;;;2.37;2.27;;;17.90;94.40;;;;;;5005857;28;20410;-83
2023/08/09 13:29:29;;;;;;;3.27;2.60;;;18.00;92.40;;;;;;5009516;28;20510;-80
2023/08/09 13:31:56;;;;;;;2.80;2.60;;;18.10;93.00;;;;;;5018371;28;20448;-81